Terminal Aerodrome Forecast
Issued by NWS

Home | Current Version | Previous Version | Text Only | Print | Product List | Glossary On
Versions: 1 2 3 4 5 6 7 8 9 10 11 12 13
000
FTUS45 KTFX 230500
TAFLWT
TAF
KLWT 230520Z 2306/2406 13008KT P6SM SCT100 BKN150
     FM231200 VRB06KT P6SM SCT070 BKN120
     FM232100 06008KT P6SM VCTS SCT070CB BKN180
     FM240200 15005KT P6SM SCT180=

USA.gov is the U.S. government's official web portal to all federal, state and local government web resources and services.